sensor_id;sensor_type;location;lat;lon;timestamp;P1;durP1;ratioP1;P2;durP2;ratioP2
31442;SDS011;18065;55.876;9.830;2024-03-08T00:01:06;1.65;;;1.55;;
31442;SDS011;18065;55.876;9.830;2024-03-08T00:03:35;1.50;;;1.40;;
31442;SDS011;18065;55.876;9.830;2024-03-08T00:06:05;1.38;;;1.27;;
31442;SDS011;18065;55.876;9.830;2024-03-08T00:08:34;1.70;;;1.60;;
31442;SDS011;18065;55.876;9.830;2024-03-08T00:11:03;1.45;;;1.35;;
31442;SDS011;18065;55.876;9.830;2024-03-08T00:13:33;2.05;;;1.95;;
31442;SDS011;18065;55.876;9.830;2024-03-08T00:16:05;1.73;;;1.63;;
31442;SDS011;18065;55.876;9.830;2024-03-08T00:18:34;2.00;;;1.80;;
31442;SDS011;18065;55.876;9.830;2024-03-08T00:21:03;1.80;;;1.70;;
31442;SDS011;18065;55.876;9.830;2024-03-08T00:23:34;1.92;;;1.75;;
31442;SDS011;18065;55.876;9.830;2024-03-08T00:26:03;2.08;;;1.70;;
31442;SDS011;18065;55.876;9.830;2024-03-08T00:28:32;2.22;;;2.03;;
31442;SDS011;18065;55.876;9.830;2024-03-08T00:31:01;1.98;;;1.77;;
31442;SDS011;18065;55.876;9.830;2024-03-08T00:33:33;2.00;;;1.83;;
31442;SDS011;18065;55.876;9.830;2024-03-08T00:36:02;1.80;;;1.70;;
31442;SDS011;18065;55.876;9.830;2024-03-08T00:38:32;1.80;;;1.70;;
31442;SDS011;18065;55.876;9.830;2024-03-08T00:41:01;1.80;;;1.70;;
31442;SDS011;18065;55.876;9.830;2024-03-08T00:43:30;1.98;;;1.70;;
31442;SDS011;18065;55.876;9.830;2024-03-08T00:45:59;2.15;;;1.95;;
31442;SDS011;18065;55.876;9.830;2024-03-08T00:48:31;2.15;;;1.90;;
31442;SDS011;18065;55.876;9.830;2024-03-08T00:51:01;2.20;;;2.00;;
31442;SDS011;18065;55.876;9.830;2024-03-08T00:53:30;2.20;;;1.90;;
31442;SDS011;18065;55.876;9.830;2024-03-08T00:55:59;1.95;;;1.85;;
31442;SDS011;18065;55.876;9.830;2024-03-08T00:58:29;2.45;;;2.00;;
31442;SDS011;18065;55.876;9.830;2024-03-08T01:00:58;2.00;;;1.80;;
31442;SDS011;18065;55.876;9.830;2024-03-08T01:03:27;1.77;;;1.67;;
31442;SDS011;18065;55.876;9.830;2024-03-08T01:05:59;2.13;;;1.92;;
31442;SDS011;18065;55.876;9.830;2024-03-08T01:08:29;1.95;;;1.75;;
31442;SDS011;18065;55.876;9.830;2024-03-08T01:10:58;1.65;;;1.50;;
31442;SDS011;18065;55.876;9.830;2024-03-08T01:13:27;1.67;;;1.52;;
31442;SDS011;18065;55.876;9.830;2024-03-08T01:15:56;1.60;;;1.50;;
31442;SDS011;18065;55.876;9.830;2024-03-08T01:18:25;1.83;;;1.50;;
31442;SDS011;18065;55.876;9.830;2024-03-08T01:20:54;1.80;;;1.70;;
31442;SDS011;18065;55.876;9.830;2024-03-08T01:23:25;1.80;;;1.70;;
31442;SDS011;18065;55.876;9.830;2024-03-08T01:25:54;1.50;;;1.40;;
31442;SDS011;18065;55.876;9.830;2024-03-08T01:28:25;1.67;;;1.52;;
31442;SDS011;18065;55.876;9.830;2024-03-08T01:30:53;1.80;;;1.70;;
31442;SDS011;18065;55.876;9.830;2024-03-08T01:33:24;2.10;;;1.90;;
31442;SDS011;18065;55.876;9.830;2024-03-08T01:35:53;1.85;;;1.75;;
31442;SDS011;18065;55.876;9.830;2024-03-08T01:38:25;1.98;;;1.77;;
31442;SDS011;18065;55.876;9.830;2024-03-08T01:40:54;2.10;;;1.90;;
31442;SDS011;18065;55.876;9.830;2024-03-08T01:43:25;2.10;;;1.90;;
31442;SDS011;18065;55.876;9.830;2024-03-08T01:45:55;1.85;;;1.70;;
31442;SDS011;18065;55.876;9.830;2024-03-08T01:48:26;2.17;;;1.98;;
31442;SDS011;18065;55.876;9.830;2024-03-08T01:50:56;2.20;;;1.60;;
31442;SDS011;18065;55.876;9.830;2024-03-08T01:53:28;1.75;;;1.65;;
31442;SDS011;18065;55.876;9.830;2024-03-08T01:55:58;2.00;;;1.80;;
31442;SDS011;18065;55.876;9.830;2024-03-08T01:58:28;2.20;;;2.00;;
31442;SDS011;18065;55.876;9.830;2024-03-08T02:00:58;1.65;;;1.40;;
31442;SDS011;18065;55.876;9.830;2024-03-08T02:03:29;1.80;;;1.70;;
31442;SDS011;18065;55.876;9.830;2024-03-08T02:05:58;1.70;;;1.60;;
31442;SDS011;18065;55.876;9.830;2024-03-08T02:08:30;2.05;;;1.75;;
31442;SDS011;18065;55.876;9.830;2024-03-08T02:11:00;1.90;;;1.80;;
31442;SDS011;18065;55.876;9.830;2024-03-08T02:13:29;2.00;;;1.80;;
31442;SDS011;18065;55.876;9.830;2024-03-08T02:15:58;1.58;;;1.48;;
31442;SDS011;18065;55.876;9.830;2024-03-08T02:18:28;2.05;;;1.85;;
31442;SDS011;18065;55.876;9.830;2024-03-08T02:21:02;1.50;;;1.40;;
31442;SDS011;18065;55.876;9.830;2024-03-08T02:23:33;2.33;;;1.50;;
31442;SDS011;18065;55.876;9.830;2024-03-08T02:26:02;1.50;;;1.40;;
31442;SDS011;18065;55.876;9.830;2024-03-08T02:28:32;1.50;;;1.40;;
31442;SDS011;18065;55.876;9.830;2024-03-08T02:31:02;1.60;;;1.50;;
31442;SDS011;18065;55.876;9.830;2024-03-08T02:33:33;1.85;;;1.50;;
31442;SDS011;18065;55.876;9.830;2024-03-08T02:36:05;1.88;;;1.38;;
31442;SDS011;18065;55.876;9.830;2024-03-08T02:38:34;1.60;;;1.50;;
31442;SDS011;18065;55.876;9.830;2024-03-08T02:41:03;1.65;;;1.48;;
31442;SDS011;18065;55.876;9.830;2024-03-08T02:43:33;2.30;;;1.85;;
31442;SDS011;18065;55.876;9.830;2024-03-08T02:46:03;1.33;;;1.23;;
31442;SDS011;18065;55.876;9.830;2024-03-08T02:48:33;1.65;;;1.55;;
31442;SDS011;18065;55.876;9.830;2024-03-08T02:51:02;1.70;;;1.60;;
31442;SDS011;18065;55.876;9.830;2024-03-08T02:53:36;1.70;;;1.55;;
31442;SDS011;18065;55.876;9.830;2024-03-08T02:56:04;1.80;;;1.70;;
31442;SDS011;18065;55.876;9.830;2024-03-08T02:58:38;1.50;;;1.40;;
31442;SDS011;18065;55.876;9.830;2024-03-08T03:01:08;1.92;;;1.60;;
31442;SDS011;18065;55.876;9.830;2024-03-08T03:03:36;1.90;;;1.75;;
31442;SDS011;18065;55.876;9.830;2024-03-08T03:06:08;1.63;;;1.52;;
31442;SDS011;18065;55.876;9.830;2024-03-08T03:08:37;1.88;;;1.67;;
31442;SDS011;18065;55.876;9.830;2024-03-08T03:11:09;1.50;;;1.40;;
31442;SDS011;18065;55.876;9.830;2024-03-08T03:13:38;1.70;;;1.60;;
31442;SDS011;18065;55.876;9.830;2024-03-08T03:16:07;1.70;;;1.60;;
31442;SDS011;18065;55.876;9.830;2024-03-08T03:18:36;1.73;;;1.63;;
31442;SDS011;18065;55.876;9.830;2024-03-08T03:21:08;1.60;;;1.50;;
31442;SDS011;18065;55.876;9.830;2024-03-08T03:23:38;1.77;;;1.67;;
31442;SDS011;18065;55.876;9.830;2024-03-08T03:26:08;1.90;;;1.70;;
31442;SDS011;18065;55.876;9.830;2024-03-08T03:28:37;1.85;;;1.70;;
31442;SDS011;18065;55.876;9.830;2024-03-08T03:31:06;1.55;;;1.45;;
31442;SDS011;18065;55.876;9.830;2024-03-08T03:33:39;1.90;;;1.52;;
31442;SDS011;18065;55.876;9.830;2024-03-08T03:36:10;2.00;;;1.80;;
31442;SDS011;18065;55.876;9.830;2024-03-08T03:38:39;2.45;;;1.90;;
31442;SDS011;18065;55.876;9.830;2024-03-08T03:41:08;2.28;;;1.80;;
31442;SDS011;18065;55.876;9.830;2024-03-08T03:43:39;1.65;;;1.55;;
31442;SDS011;18065;55.876;9.830;2024-03-08T03:46:08;1.42;;;1.33;;
31442;SDS011;18065;55.876;9.830;2024-03-08T03:48:37;1.50;;;1.40;;
31442;SDS011;18065;55.876;9.830;2024-03-08T03:51:11;1.38;;;1.27;;
31442;SDS011;18065;55.876;9.830;2024-03-08T03:53:40;1.70;;;1.60;;
31442;SDS011;18065;55.876;9.830;2024-03-08T03:56:09;1.30;;;1.20;;
31442;SDS011;18065;55.876;9.830;2024-03-08T03:58:38;1.40;;;1.27;;
31442;SDS011;18065;55.876;9.830;2024-03-08T04:01:08;1.60;;;1.40;;
31442;SDS011;18065;55.876;9.830;2024-03-08T04:03:38;1.45;;;1.35;;
31442;SDS011;18065;55.876;9.830;2024-03-08T04:06:12;1.50;;;1.40;;
31442;SDS011;18065;55.876;9.830;2024-03-08T04:08:41;1.58;;;1.48;;
31442;SDS011;18065;55.876;9.830;2024-03-08T04:11:10;1.42;;;1.33;;
31442;SDS011;18065;55.876;9.830;2024-03-08T04:13:41;1.70;;;1.60;;
31442;SDS011;18065;55.876;9.830;2024-03-08T04:16:10;1.75;;;1.65;;
31442;SDS011;18065;55.876;9.830;2024-03-08T04:18:39;1.50;;;1.40;;
31442;SDS011;18065;55.876;9.830;2024-03-08T04:21:08;1.67;;;1.58;;
31442;SDS011;18065;55.876;9.830;2024-03-08T04:23:39;1.48;;;1.38;;
31442;SDS011;18065;55.876;9.830;2024-03-08T04:26:10;1.60;;;1.50;;
31442;SDS011;18065;55.876;9.830;2024-03-08T04:28:39;1.60;;;1.50;;
31442;SDS011;18065;55.876;9.830;2024-03-08T04:31:08;1.45;;;1.35;;
31442;SDS011;18065;55.876;9.830;2024-03-08T04:33:34;1.60;;;1.50;;
31442;SDS011;18065;55.876;9.830;2024-03-08T04:36:04;1.40;;;1.30;;
31442;SDS011;18065;55.876;9.830;2024-03-08T04:38:33;2.38;;;1.67;;
31442;SDS011;18065;55.876;9.830;2024-03-08T04:41:08;1.83;;;1.45;;
31442;SDS011;18065;55.876;9.830;2024-03-08T04:43:37;1.80;;;1.52;;
31442;SDS011;18065;55.876;9.830;2024-03-08T04:46:06;1.70;;;1.60;;
31442;SDS011;18065;55.876;9.830;2024-03-08T04:48:35;2.13;;;1.73;;
31442;SDS011;18065;55.876;9.830;2024-03-08T04:51:04;2.00;;;1.80;;
31442;SDS011;18065;55.876;9.830;2024-03-08T04:53:33;1.55;;;1.45;;
31442;SDS011;18065;55.876;9.830;2024-03-08T04:56:02;1.80;;;1.70;;
31442;SDS011;18065;55.876;9.830;2024-03-08T04:58:35;1.90;;;1.67;;
31442;SDS011;18065;55.876;9.830;2024-03-08T05:01:04;1.70;;;1.60;;
31442;SDS011;18065;55.876;9.830;2024-03-08T05:03:35;1.45;;;1.35;;
31442;SDS011;18065;55.876;9.830;2024-03-08T05:06:04;1.70;;;1.60;;
31442;SDS011;18065;55.876;9.830;2024-03-08T05:08:33;1.40;;;1.30;;
31442;SDS011;18065;55.876;9.830;2024-03-08T05:11:02;1.40;;;1.30;;
31442;SDS011;18065;55.876;9.830;2024-03-08T05:13:35;1.40;;;1.30;;
31442;SDS011;18065;55.876;9.830;2024-03-08T05:16:04;1.20;;;1.10;;
31442;SDS011;18065;55.876;9.830;2024-03-08T05:18:33;1.17;;;1.08;;
31442;SDS011;18065;55.876;9.830;2024-03-08T05:21:02;1.35;;;1.10;;
31442;SDS011;18065;55.876;9.830;2024-03-08T05:23:31;1.40;;;1.30;;
31442;SDS011;18065;55.876;9.830;2024-03-08T05:26:00;1.35;;;1.25;;
31442;SDS011;18065;55.876;9.830;2024-03-08T05:28:29;1.45;;;1.35;;
31442;SDS011;18065;55.876;9.830;2024-03-08T05:31:00;1.52;;;1.30;;
31442;SDS011;18065;55.876;9.830;2024-03-08T05:33:29;1.67;;;1.58;;
31442;SDS011;18065;55.876;9.830;2024-03-08T05:35:59;1.38;;;1.27;;
31442;SDS011;18065;55.876;9.830;2024-03-08T05:38:28;1.60;;;1.50;;
31442;SDS011;18065;55.876;9.830;2024-03-08T05:40:57;1.60;;;1.50;;
31442;SDS011;18065;55.876;9.830;2024-03-08T05:43:26;1.77;;;1.67;;
31442;SDS011;18065;55.876;9.830;2024-03-08T05:45:55;1.63;;;1.52;;
31442;SDS011;18065;55.876;9.830;2024-03-08T05:48:26;1.67;;;1.58;;
31442;SDS011;18065;55.876;9.830;2024-03-08T05:53:27;1.40;;;1.30;;
31442;SDS011;18065;55.876;9.830;2024-03-08T05:55:57;1.40;;;1.30;;
31442;SDS011;18065;55.876;9.830;2024-03-08T05:58:27;1.58;;;1.48;;
31442;SDS011;18065;55.876;9.830;2024-03-08T06:00:58;1.50;;;1.40;;
31442;SDS011;18065;55.876;9.830;2024-03-08T06:03:29;1.52;;;1.42;;
31442;SDS011;18065;55.876;9.830;2024-03-08T06:05:58;1.40;;;1.30;;
31442;SDS011;18065;55.876;9.830;2024-03-08T06:08:27;1.38;;;1.27;;
31442;SDS011;18065;55.876;9.830;2024-03-08T06:10:57;1.70;;;1.60;;
31442;SDS011;18065;55.876;9.830;2024-03-08T06:13:27;1.50;;;1.40;;
31442;SDS011;18065;55.876;9.830;2024-03-08T06:15:56;2.25;;;1.85;;
31442;SDS011;18065;55.876;9.830;2024-03-08T06:18:25;1.65;;;1.55;;
31442;SDS011;18065;55.876;9.830;2024-03-08T06:20:56;1.55;;;1.42;;
31442;SDS011;18065;55.876;9.830;2024-03-08T06:23:26;1.80;;;1.50;;
31442;SDS011;18065;55.876;9.830;2024-03-08T06:25:54;1.30;;;1.20;;
31442;SDS011;18065;55.876;9.830;2024-03-08T06:28:23;1.48;;;1.38;;
31442;SDS011;18065;55.876;9.830;2024-03-08T06:30:52;1.90;;;1.70;;
31442;SDS011;18065;55.876;9.830;2024-03-08T06:33:21;1.50;;;1.40;;
31442;SDS011;18065;55.876;9.830;2024-03-08T06:35:51;1.40;;;1.30;;
31442;SDS011;18065;55.876;9.830;2024-03-08T06:38:25;1.63;;;1.45;;
31442;SDS011;18065;55.876;9.830;2024-03-08T06:43:24;1.20;;;1.10;;
31442;SDS011;18065;55.876;9.830;2024-03-08T06:45:59;1.50;;;1.20;;
31442;SDS011;18065;55.876;9.830;2024-03-08T06:48:29;1.15;;;1.00;;
31442;SDS011;18065;55.876;9.830;2024-03-08T06:50:58;1.30;;;1.20;;
31442;SDS011;18065;55.876;9.830;2024-03-08T06:53:29;1.30;;;1.17;;
31442;SDS011;18065;55.876;9.830;2024-03-08T06:56:00;1.08;;;1.05;;
31442;SDS011;18065;55.876;9.830;2024-03-08T06:58:29;1.38;;;1.27;;
31442;SDS011;18065;55.876;9.830;2024-03-08T07:00:58;1.77;;;1.30;;
31442;SDS011;18065;55.876;9.830;2024-03-08T07:03:29;1.33;;;1.10;;
31442;SDS011;18065;55.876;9.830;2024-03-08T07:05:58;1.42;;;1.33;;
31442;SDS011;18065;55.876;9.830;2024-03-08T07:08:30;1.50;;;1.40;;
31442;SDS011;18065;55.876;9.830;2024-03-08T07:10:59;1.52;;;1.42;;
31442;SDS011;18065;55.876;9.830;2024-03-08T07:13:28;2.15;;;1.63;;
31442;SDS011;18065;55.876;9.830;2024-03-08T07:15:57;1.60;;;1.50;;
31442;SDS011;18065;55.876;9.830;2024-03-08T07:18:27;1.48;;;1.38;;
31442;SDS011;18065;55.876;9.830;2024-03-08T07:20:55;1.52;;;1.42;;
31442;SDS011;18065;55.876;9.830;2024-03-08T07:23:24;1.67;;;1.58;;
31442;SDS011;18065;55.876;9.830;2024-03-08T07:26:08;1.45;;;1.35;;
31442;SDS011;18065;55.876;9.830;2024-03-08T07:28:37;1.40;;;1.30;;
31442;SDS011;18065;55.876;9.830;2024-03-08T07:31:06;1.80;;;1.67;;
31442;SDS011;18065;55.876;9.830;2024-03-08T07:33:46;1.48;;;1.38;;
31442;SDS011;18065;55.876;9.830;2024-03-08T07:36:15;1.75;;;1.60;;
31442;SDS011;18065;55.876;9.830;2024-03-08T07:38:44;1.60;;;1.50;;
31442;SDS011;18065;55.876;9.830;2024-03-08T07:41:17;1.63;;;1.42;;
31442;SDS011;18065;55.876;9.830;2024-03-08T07:43:46;1.73;;;1.55;;
31442;SDS011;18065;55.876;9.830;2024-03-08T07:46:15;1.42;;;1.33;;
31442;SDS011;18065;55.876;9.830;2024-03-08T07:48:43;2.25;;;1.60;;
31442;SDS011;18065;55.876;9.830;2024-03-08T07:51:15;1.88;;;1.70;;
31442;SDS011;18065;55.876;9.830;2024-03-08T07:53:44;2.08;;;1.60;;
31442;SDS011;18065;55.876;9.830;2024-03-08T07:56:13;1.85;;;1.50;;
31442;SDS011;18065;55.876;9.830;2024-03-08T07:58:46;2.17;;;1.67;;
31442;SDS011;18065;55.876;9.830;2024-03-08T08:01:18;1.98;;;1.70;;
31442;SDS011;18065;55.876;9.830;2024-03-08T08:03:47;2.08;;;1.88;;
31442;SDS011;18065;55.876;9.830;2024-03-08T08:06:16;1.70;;;1.60;;
31442;SDS011;18065;55.876;9.830;2024-03-08T08:08:45;1.50;;;1.40;;
31442;SDS011;18065;55.876;9.830;2024-03-08T08:11:14;1.35;;;1.25;;
31442;SDS011;18065;55.876;9.830;2024-03-08T08:13:46;1.35;;;1.25;;
31442;SDS011;18065;55.876;9.830;2024-03-08T08:16:15;1.10;;;1.10;;
31442;SDS011;18065;55.876;9.830;2024-03-08T08:18:44;1.20;;;1.10;;
31442;SDS011;18065;55.876;9.830;2024-03-08T08:21:13;1.17;;;1.10;;
31442;SDS011;18065;55.876;9.830;2024-03-08T08:23:43;1.40;;;1.30;;
31442;SDS011;18065;55.876;9.830;2024-03-08T08:26:12;1.30;;;1.20;;
31442;SDS011;18065;55.876;9.830;2024-03-08T08:28:41;1.20;;;1.10;;
31442;SDS011;18065;55.876;9.830;2024-03-08T08:31:14;1.30;;;1.20;;
31442;SDS011;18065;55.876;9.830;2024-03-08T08:33:42;1.40;;;1.30;;
31442;SDS011;18065;55.876;9.830;2024-03-08T08:36:13;1.20;;;1.10;;
31442;SDS011;18065;55.876;9.830;2024-03-08T08:38:43;1.38;;;1.27;;
31442;SDS011;18065;55.876;9.830;2024-03-08T08:41:12;1.30;;;1.20;;
31442;SDS011;18065;55.876;9.830;2024-03-08T08:43:42;1.40;;;1.30;;
31442;SDS011;18065;55.876;9.830;2024-03-08T08:46:16;1.38;;;1.27;;
31442;SDS011;18065;55.876;9.830;2024-03-08T08:48:46;1.50;;;1.40;;
31442;SDS011;18065;55.876;9.830;2024-03-08T08:51:16;1.55;;;1.45;;
31442;SDS011;18065;55.876;9.830;2024-03-08T08:53:44;1.58;;;1.48;;
31442;SDS011;18065;55.876;9.830;2024-03-08T08:56:14;1.98;;;1.67;;
31442;SDS011;18065;55.876;9.830;2024-03-08T08:58:44;1.80;;;1.40;;
31442;SDS011;18065;55.876;9.830;2024-03-08T09:01:16;1.50;;;1.40;;
31442;SDS011;18065;55.876;9.830;2024-03-08T09:03:45;1.60;;;1.48;;
31442;SDS011;18065;55.876;9.830;2024-03-08T09:06:15;1.50;;;1.40;;
31442;SDS011;18065;55.876;9.830;2024-03-08T09:08:44;1.98;;;1.20;;
31442;SDS011;18065;55.876;9.830;2024-03-08T09:11:13;1.90;;;1.40;;
31442;SDS011;18065;55.876;9.830;2024-03-08T09:13:44;1.52;;;1.42;;
31442;SDS011;18065;55.876;9.830;2024-03-08T09:16:16;1.50;;;1.40;;
31442;SDS011;18065;55.876;9.830;2024-03-08T09:18:45;1.67;;;1.58;;
31442;SDS011;18065;55.876;9.830;2024-03-08T09:21:14;1.80;;;1.70;;
31442;SDS011;18065;55.876;9.830;2024-03-08T09:23:43;1.90;;;1.70;;
31442;SDS011;18065;55.876;9.830;2024-03-08T09:26:12;1.42;;;1.33;;
31442;SDS011;18065;55.876;9.830;2024-03-08T09:28:41;1.45;;;1.35;;
31442;SDS011;18065;55.876;9.830;2024-03-08T09:31:10;2.17;;;1.77;;
31442;SDS011;18065;55.876;9.830;2024-03-08T09:33:43;1.17;;;1.08;;
31442;SDS011;18065;55.876;9.830;2024-03-08T09:36:12;1.38;;;1.13;;
31442;SDS011;18065;55.876;9.830;2024-03-08T09:38:42;1.73;;;1.40;;
31442;SDS011;18065;55.876;9.830;2024-03-08T09:41:10;2.70;;;1.50;;
31442;SDS011;18065;55.876;9.830;2024-03-08T09:43:39;1.60;;;1.40;;
31442;SDS011;18065;55.876;9.830;2024-03-08T09:46:08;2.30;;;1.15;;
31442;SDS011;18065;55.876;9.830;2024-03-08T09:48:39;1.40;;;1.30;;
31442;SDS011;18065;55.876;9.830;2024-03-08T09:51:11;1.55;;;1.45;;
31442;SDS011;18065;55.876;9.830;2024-03-08T09:53:41;1.50;;;1.40;;
31442;SDS011;18065;55.876;9.830;2024-03-08T09:56:11;1.50;;;1.20;;
31442;SDS011;18065;55.876;9.830;2024-03-08T09:58:41;1.65;;;1.50;;
31442;SDS011;18065;55.876;9.830;2024-03-08T10:01:40;1.52;;;1.10;;
31442;SDS011;18065;55.876;9.830;2024-03-08T10:04:06;1.63;;;1.15;;
31442;SDS011;18065;55.876;9.830;2024-03-08T10:06:38;1.50;;;1.40;;
31442;SDS011;18065;55.876;9.830;2024-03-08T10:09:09;1.25;;;1.15;;
31442;SDS011;18065;55.876;9.830;2024-03-08T10:11:38;1.38;;;1.25;;
31442;SDS011;18065;55.876;9.830;2024-03-08T10:14:07;1.73;;;1.40;;
31442;SDS011;18065;55.876;9.830;2024-03-08T10:16:37;1.52;;;1.42;;
31442;SDS011;18065;55.876;9.830;2024-03-08T10:19:06;1.90;;;1.40;;
31442;SDS011;18065;55.876;9.830;2024-03-08T10:21:49;1.63;;;1.50;;
31442;SDS011;18065;55.876;9.830;2024-03-08T10:24:18;1.95;;;1.75;;
31442;SDS011;18065;55.876;9.830;2024-03-08T10:26:48;1.75;;;1.30;;
31442;SDS011;18065;55.876;9.830;2024-03-08T10:29:20;1.25;;;1.13;;
31442;SDS011;18065;55.876;9.830;2024-03-08T10:31:49;1.50;;;1.40;;
31442;SDS011;18065;55.876;9.830;2024-03-08T10:34:18;1.30;;;1.20;;
31442;SDS011;18065;55.876;9.830;2024-03-08T10:36:51;1.45;;;1.35;;
31442;SDS011;18065;55.876;9.830;2024-03-08T10:39:21;1.75;;;1.50;;
31442;SDS011;18065;55.876;9.830;2024-03-08T10:41:52;1.40;;;1.30;;
31442;SDS011;18065;55.876;9.830;2024-03-08T10:47:17;1.58;;;1.48;;
31442;SDS011;18065;55.876;9.830;2024-03-08T10:49:50;1.52;;;1.40;;
31442;SDS011;18065;55.876;9.830;2024-03-08T10:52:22;1.85;;;1.20;;
31442;SDS011;18065;55.876;9.830;2024-03-08T10:54:52;1.55;;;1.40;;
31442;SDS011;18065;55.876;9.830;2024-03-08T10:57:23;1.77;;;1.48;;
31442;SDS011;18065;55.876;9.830;2024-03-08T10:59:52;1.50;;;1.40;;
31442;SDS011;18065;55.876;9.830;2024-03-08T11:02:23;1.20;;;1.10;;
31442;SDS011;18065;55.876;9.830;2024-03-08T11:04:55;1.67;;;1.27;;
31442;SDS011;18065;55.876;9.830;2024-03-08T11:07:27;1.33;;;1.23;;
31442;SDS011;18065;55.876;9.830;2024-03-08T11:09:57;2.15;;;1.15;;
31442;SDS011;18065;55.876;9.830;2024-03-08T11:12:26;1.48;;;1.38;;
31442;SDS011;18065;55.876;9.830;2024-03-08T11:14:59;1.30;;;1.20;;
31442;SDS011;18065;55.876;9.830;2024-03-08T11:20:14;1.30;;;1.20;;
31442;SDS011;18065;55.876;9.830;2024-03-08T11:22:51;1.42;;;1.33;;
31442;SDS011;18065;55.876;9.830;2024-03-08T11:25:31;1.88;;;1.23;;
31442;SDS011;18065;55.876;9.830;2024-03-08T11:28:11;1.33;;;1.15;;
31442;SDS011;18065;55.876;9.830;2024-03-08T11:30:45;1.17;;;1.08;;
31442;SDS011;18065;55.876;9.830;2024-03-08T11:33:15;1.10;;;1.00;;
31442;SDS011;18065;55.876;9.830;2024-03-08T11:35:44;1.30;;;1.20;;
31442;SDS011;18065;55.876;9.830;2024-03-08T11:38:16;1.30;;;1.20;;
31442;SDS011;18065;55.876;9.830;2024-03-08T11:40:45;1.40;;;1.10;;
31442;SDS011;18065;55.876;9.830;2024-03-08T11:43:17;1.30;;;1.20;;
31442;SDS011;18065;55.876;9.830;2024-03-08T11:45:45;1.38;;;1.27;;
31442;SDS011;18065;55.876;9.830;2024-03-08T11:48:14;1.15;;;1.05;;
31442;SDS011;18065;55.876;9.830;2024-03-08T11:50:43;1.25;;;1.15;;
31442;SDS011;18065;55.876;9.830;2024-03-08T11:53:17;1.40;;;1.20;;
31442;SDS011;18065;55.876;9.830;2024-03-08T11:55:46;1.25;;;1.00;;
31442;SDS011;18065;55.876;9.830;2024-03-08T11:58:14;1.70;;;1.42;;
31442;SDS011;18065;55.876;9.830;2024-03-08T12:00:43;1.00;;;0.90;;
31442;SDS011;18065;55.876;9.830;2024-03-08T12:03:12;1.95;;;1.30;;
31442;SDS011;18065;55.876;9.830;2024-03-08T12:05:43;1.50;;;1.40;;
31442;SDS011;18065;55.876;9.830;2024-03-08T12:08:12;1.50;;;1.40;;
31442;SDS011;18065;55.876;9.830;2024-03-08T12:10:44;1.65;;;1.17;;
31442;SDS011;18065;55.876;9.830;2024-03-08T12:13:12;1.40;;;1.20;;
31442;SDS011;18065;55.876;9.830;2024-03-08T12:15:41;1.90;;;1.70;;
31442;SDS011;18065;55.876;9.830;2024-03-08T12:18:10;1.45;;;1.30;;
31442;SDS011;18065;55.876;9.830;2024-03-08T12:20:39;1.20;;;1.10;;
31442;SDS011;18065;55.876;9.830;2024-03-08T12:23:15;1.35;;;1.20;;
31442;SDS011;18065;55.876;9.830;2024-03-08T12:25:47;1.38;;;1.10;;
31442;SDS011;18065;55.876;9.830;2024-03-08T12:28:16;1.20;;;1.08;;
31442;SDS011;18065;55.876;9.830;2024-03-08T12:30:47;1.55;;;1.08;;
31442;SDS011;18065;55.876;9.830;2024-03-08T12:33:18;1.20;;;1.10;;
31442;SDS011;18065;55.876;9.830;2024-03-08T12:35:50;1.35;;;1.00;;
31442;SDS011;18065;55.876;9.830;2024-03-08T12:38:23;1.20;;;1.10;;
31442;SDS011;18065;55.876;9.830;2024-03-08T12:40:57;1.30;;;1.15;;
31442;SDS011;18065;55.876;9.830;2024-03-08T12:43:27;1.27;;;1.17;;
31442;SDS011;18065;55.876;9.830;2024-03-08T12:45:58;1.83;;;0.98;;
31442;SDS011;18065;55.876;9.830;2024-03-08T12:48:33;1.60;;;1.20;;
31442;SDS011;18065;55.876;9.830;2024-03-08T12:51:05;1.23;;;1.13;;
31442;SDS011;18065;55.876;9.830;2024-03-08T12:53:35;1.30;;;1.20;;
31442;SDS011;18065;55.876;9.830;2024-03-08T12:56:08;1.08;;;0.98;;
31442;SDS011;18065;55.876;9.830;2024-03-08T12:58:37;1.73;;;1.00;;
31442;SDS011;18065;55.876;9.830;2024-03-08T13:01:07;1.45;;;1.17;;
31442;SDS011;18065;55.876;9.830;2024-03-08T13:03:37;1.63;;;1.13;;
31442;SDS011;18065;55.876;9.830;2024-03-08T13:06:06;1.30;;;1.20;;
31442;SDS011;18065;55.876;9.830;2024-03-08T13:08:35;1.70;;;1.45;;
31442;SDS011;18065;55.876;9.830;2024-03-08T13:11:04;1.20;;;1.10;;
31442;SDS011;18065;55.876;9.830;2024-03-08T13:13:35;1.20;;;1.10;;
31442;SDS011;18065;55.876;9.830;2024-03-08T13:16:05;1.08;;;0.98;;
31442;SDS011;18065;55.876;9.830;2024-03-08T13:18:36;1.58;;;1.23;;
31442;SDS011;18065;55.876;9.830;2024-03-08T13:21:07;1.15;;;1.05;;
31442;SDS011;18065;55.876;9.830;2024-03-08T13:23:39;1.17;;;1.05;;
31442;SDS011;18065;55.876;9.830;2024-03-08T13:26:12;2.38;;;1.20;;
31442;SDS011;18065;55.876;9.830;2024-03-08T13:28:44;1.50;;;1.40;;
31442;SDS011;18065;55.876;9.830;2024-03-08T13:31:14;1.45;;;1.20;;
31442;SDS011;18065;55.876;9.830;2024-03-08T13:33:43;0.80;;;0.80;;
31442;SDS011;18065;55.876;9.830;2024-03-08T13:36:13;0.98;;;0.90;;
31442;SDS011;18065;55.876;9.830;2024-03-08T13:38:47;1.27;;;1.05;;
31442;SDS011;18065;55.876;9.830;2024-03-08T13:41:16;1.20;;;1.10;;
31442;SDS011;18065;55.876;9.830;2024-03-08T13:43:50;1.30;;;0.93;;
31442;SDS011;18065;55.876;9.830;2024-03-08T13:46:21;1.73;;;1.40;;
31442;SDS011;18065;55.876;9.830;2024-03-08T13:48:49;0.93;;;0.90;;
31442;SDS011;18065;55.876;9.830;2024-03-08T13:51:18;1.10;;;0.98;;
31442;SDS011;18065;55.876;9.830;2024-03-08T13:53:50;1.30;;;1.20;;
31442;SDS011;18065;55.876;9.830;2024-03-08T13:56:19;1.35;;;1.17;;
31442;SDS011;18065;55.876;9.830;2024-03-08T13:58:50;0.90;;;0.90;;
31442;SDS011;18065;55.876;9.830;2024-03-08T14:01:21;1.88;;;1.50;;
31442;SDS011;18065;55.876;9.830;2024-03-08T14:03:50;2.17;;;1.23;;
31442;SDS011;18065;55.876;9.830;2024-03-08T14:06:19;1.30;;;1.20;;
31442;SDS011;18065;55.876;9.830;2024-03-08T14:08:51;1.30;;;1.20;;
31442;SDS011;18065;55.876;9.830;2024-03-08T14:11:22;1.30;;;1.20;;
31442;SDS011;18065;55.876;9.830;2024-03-08T14:13:53;2.70;;;1.25;;
31442;SDS011;18065;55.876;9.830;2024-03-08T14:16:22;1.20;;;1.10;;
31442;SDS011;18065;55.876;9.830;2024-03-08T14:18:51;1.15;;;0.85;;
31442;SDS011;18065;55.876;9.830;2024-03-08T14:21:20;1.20;;;1.10;;
31442;SDS011;18065;55.876;9.830;2024-03-08T14:23:49;0.93;;;0.88;;
31442;SDS011;18065;55.876;9.830;2024-03-08T14:26:17;1.63;;;1.05;;
31442;SDS011;18065;55.876;9.830;2024-03-08T14:28:46;1.20;;;1.10;;
31442;SDS011;18065;55.876;9.830;2024-03-08T14:31:19;1.20;;;1.10;;
31442;SDS011;18065;55.876;9.830;2024-03-08T14:33:50;1.40;;;1.30;;
31442;SDS011;18065;55.876;9.830;2024-03-08T14:36:20;1.25;;;1.15;;
31442;SDS011;18065;55.876;9.830;2024-03-08T14:38:49;1.95;;;1.13;;
31442;SDS011;18065;55.876;9.830;2024-03-08T14:41:17;1.40;;;1.30;;
31442;SDS011;18065;55.876;9.830;2024-03-08T14:43:47;2.05;;;1.50;;
31442;SDS011;18065;55.876;9.830;2024-03-08T14:46:20;1.20;;;1.10;;
31442;SDS011;18065;55.876;9.830;2024-03-08T14:48:49;1.20;;;1.02;;
31442;SDS011;18065;55.876;9.830;2024-03-08T14:51:19;1.33;;;1.00;;
31442;SDS011;18065;55.876;9.830;2024-03-08T14:53:51;1.30;;;1.10;;
31442;SDS011;18065;55.876;9.830;2024-03-08T14:56:20;1.33;;;1.02;;
31442;SDS011;18065;55.876;9.830;2024-03-08T14:58:52;1.05;;;0.90;;
31442;SDS011;18065;55.876;9.830;2024-03-08T15:01:27;1.25;;;1.15;;
31442;SDS011;18065;55.876;9.830;2024-03-08T15:06:33;0.90;;;0.90;;
31442;SDS011;18065;55.876;9.830;2024-03-08T15:09:02;1.20;;;1.10;;
31442;SDS011;18065;55.876;9.830;2024-03-08T15:11:37;1.40;;;1.00;;
31442;SDS011;18065;55.876;9.830;2024-03-08T15:14:07;1.08;;;0.98;;
31442;SDS011;18065;55.876;9.830;2024-03-08T15:16:39;1.13;;;1.02;;
31442;SDS011;18065;55.876;9.830;2024-03-08T15:19:08;1.10;;;1.00;;